sensor_id;sensor_type;location;lat;lon;timestamp;P1;durP1;ratioP1;P2;durP2;ratioP2
52942;SDS011;38809;53.300;6.614;2023-12-22T00:01:22;16.10;;;3.95;;
52942;SDS011;38809;53.300;6.614;2023-12-22T00:03:49;19.63;;;4.05;;
52942;SDS011;38809;53.300;6.614;2023-12-22T00:06:15;16.00;;;3.72;;
52942;SDS011;38809;53.300;6.614;2023-12-22T00:08:41;20.70;;;3.47;;
52942;SDS011;38809;53.300;6.614;2023-12-22T00:11:07;13.23;;;3.25;;
52942;SDS011;38809;53.300;6.614;2023-12-22T00:13:33;12.70;;;3.25;;
52942;SDS011;38809;53.300;6.614;2023-12-22T00:16:00;10.10;;;2.50;;
52942;SDS011;38809;53.300;6.614;2023-12-22T00:18:29;9.80;;;2.50;;
52942;SDS011;38809;53.300;6.614;2023-12-22T00:23:22;10.90;;;2.63;;
52942;SDS011;38809;53.300;6.614;2023-12-22T00:25:48;10.20;;;2.60;;
52942;SDS011;38809;53.300;6.614;2023-12-22T00:28:14;10.68;;;2.75;;
52942;SDS011;38809;53.300;6.614;2023-12-22T00:30:40;23.35;;;3.88;;
52942;SDS011;38809;53.300;6.614;2023-12-22T00:33:06;15.48;;;3.40;;
52942;SDS011;38809;53.300;6.614;2023-12-22T00:35:32;14.32;;;3.60;;
52942;SDS011;38809;53.300;6.614;2023-12-22T00:38:00;11.98;;;2.78;;
52942;SDS011;38809;53.300;6.614;2023-12-22T00:40:27;11.43;;;2.70;;
52942;SDS011;38809;53.300;6.614;2023-12-22T00:42:53;11.65;;;2.17;;
52942;SDS011;38809;53.300;6.614;2023-12-22T00:45:19;11.15;;;2.08;;
52942;SDS011;38809;53.300;6.614;2023-12-22T00:47:45;11.73;;;2.67;;
52942;SDS011;38809;53.300;6.614;2023-12-22T00:50:11;21.45;;;3.15;;
52942;SDS011;38809;53.300;6.614;2023-12-22T00:52:37;12.43;;;2.85;;
52942;SDS011;38809;53.300;6.614;2023-12-22T00:55:03;17.15;;;4.43;;
52942;SDS011;38809;53.300;6.614;2023-12-22T00:57:29;15.57;;;3.85;;
52942;SDS011;38809;53.300;6.614;2023-12-22T00:59:56;23.38;;;4.10;;
52942;SDS011;38809;53.300;6.614;2023-12-22T01:02:22;16.42;;;3.10;;
52942;SDS011;38809;53.300;6.614;2023-12-22T01:04:49;21.83;;;4.57;;
52942;SDS011;38809;53.300;6.614;2023-12-22T01:07:16;14.20;;;3.75;;
52942;SDS011;38809;53.300;6.614;2023-12-22T01:09:43;18.42;;;3.63;;
52942;SDS011;38809;53.300;6.614;2023-12-22T01:12:15;19.25;;;4.65;;
52942;SDS011;38809;53.300;6.614;2023-12-22T01:14:42;14.75;;;4.18;;
52942;SDS011;38809;53.300;6.614;2023-12-22T01:17:10;15.52;;;3.70;;
52942;SDS011;38809;53.300;6.614;2023-12-22T01:19:36;16.70;;;4.05;;
52942;SDS011;38809;53.300;6.614;2023-12-22T01:22:02;15.02;;;4.13;;
52942;SDS011;38809;53.300;6.614;2023-12-22T01:24:30;18.35;;;4.10;;
52942;SDS011;38809;53.300;6.614;2023-12-22T01:26:56;23.45;;;5.50;;
52942;SDS011;38809;53.300;6.614;2023-12-22T01:29:23;17.30;;;3.97;;
52942;SDS011;38809;53.300;6.614;2023-12-22T01:31:50;22.67;;;4.90;;
52942;SDS011;38809;53.300;6.614;2023-12-22T01:34:16;16.38;;;3.65;;
52942;SDS011;38809;53.300;6.614;2023-12-22T01:36:42;18.48;;;3.83;;
52942;SDS011;38809;53.300;6.614;2023-12-22T01:39:08;19.20;;;4.00;;
52942;SDS011;38809;53.300;6.614;2023-12-22T01:41:34;9.32;;;3.28;;
52942;SDS011;38809;53.300;6.614;2023-12-22T01:44:00;18.88;;;4.55;;
52942;SDS011;38809;53.300;6.614;2023-12-22T01:46:26;15.00;;;4.65;;
52942;SDS011;38809;53.300;6.614;2023-12-22T01:51:19;16.08;;;3.58;;
52942;SDS011;38809;53.300;6.614;2023-12-22T01:53:45;11.35;;;3.50;;
52942;SDS011;38809;53.300;6.614;2023-12-22T01:58:37;12.02;;;3.00;;
52942;SDS011;38809;53.300;6.614;2023-12-22T02:01:04;14.13;;;3.58;;
52942;SDS011;38809;53.300;6.614;2023-12-22T02:03:31;12.73;;;3.08;;
52942;SDS011;38809;53.300;6.614;2023-12-22T02:05:57;14.43;;;3.28;;
52942;SDS011;38809;53.300;6.614;2023-12-22T02:08:25;18.77;;;3.65;;
52942;SDS011;38809;53.300;6.614;2023-12-22T02:10:52;15.52;;;4.00;;
52942;SDS011;38809;53.300;6.614;2023-12-22T02:13:18;12.02;;;3.05;;
52942;SDS011;38809;53.300;6.614;2023-12-22T02:15:44;16.05;;;3.63;;
52942;SDS011;38809;53.300;6.614;2023-12-22T02:18:21;12.77;;;2.90;;
52942;SDS011;38809;53.300;6.614;2023-12-22T02:20:49;6.95;;;1.95;;
52942;SDS011;38809;53.300;6.614;2023-12-22T02:23:15;7.22;;;1.55;;
52942;SDS011;38809;53.300;6.614;2023-12-22T02:25:42;13.32;;;2.55;;
52942;SDS011;38809;53.300;6.614;2023-12-22T02:28:09;8.82;;;2.33;;
52942;SDS011;38809;53.300;6.614;2023-12-22T02:30:54;11.27;;;2.63;;
52942;SDS011;38809;53.300;6.614;2023-12-22T02:33:22;10.52;;;2.35;;
52942;SDS011;38809;53.300;6.614;2023-12-22T02:35:49;9.25;;;2.20;;
52942;SDS011;38809;53.300;6.614;2023-12-22T02:38:16;16.23;;;3.78;;
52942;SDS011;38809;53.300;6.614;2023-12-22T02:40:43;14.90;;;3.47;;
52942;SDS011;38809;53.300;6.614;2023-12-22T02:43:10;14.68;;;3.22;;
52942;SDS011;38809;53.300;6.614;2023-12-22T02:45:36;13.55;;;3.03;;
52942;SDS011;38809;53.300;6.614;2023-12-22T02:48:02;12.65;;;3.17;;
52942;SDS011;38809;53.300;6.614;2023-12-22T02:50:29;11.93;;;3.33;;
52942;SDS011;38809;53.300;6.614;2023-12-22T02:52:55;12.48;;;3.50;;
52942;SDS011;38809;53.300;6.614;2023-12-22T02:55:21;16.15;;;3.47;;
52942;SDS011;38809;53.300;6.614;2023-12-22T02:57:47;15.13;;;3.20;;
52942;SDS011;38809;53.300;6.614;2023-12-22T03:00:13;13.82;;;2.47;;
52942;SDS011;38809;53.300;6.614;2023-12-22T03:02:39;7.43;;;1.73;;
52942;SDS011;38809;53.300;6.614;2023-12-22T03:05:05;11.77;;;2.60;;
52942;SDS011;38809;53.300;6.614;2023-12-22T03:07:32;8.43;;;1.88;;
52942;SDS011;38809;53.300;6.614;2023-12-22T03:10:01;11.93;;;1.70;;
52942;SDS011;38809;53.300;6.614;2023-12-22T03:12:30;6.15;;;1.77;;
52942;SDS011;38809;53.300;6.614;2023-12-22T03:14:56;7.80;;;2.00;;
52942;SDS011;38809;53.300;6.614;2023-12-22T03:17:23;6.93;;;1.83;;
52942;SDS011;38809;53.300;6.614;2023-12-22T03:19:49;6.90;;;1.77;;
52942;SDS011;38809;53.300;6.614;2023-12-22T03:22:15;12.90;;;2.40;;
52942;SDS011;38809;53.300;6.614;2023-12-22T03:24:41;11.43;;;2.50;;
52942;SDS011;38809;53.300;6.614;2023-12-22T03:27:08;14.70;;;3.05;;
52942;SDS011;38809;53.300;6.614;2023-12-22T03:29:34;17.58;;;3.50;;
52942;SDS011;38809;53.300;6.614;2023-12-22T03:32:00;12.10;;;3.80;;
52942;SDS011;38809;53.300;6.614;2023-12-22T03:34:26;13.25;;;3.58;;
52942;SDS011;38809;53.300;6.614;2023-12-22T03:36:52;13.27;;;3.45;;
52942;SDS011;38809;53.300;6.614;2023-12-22T03:39:18;10.80;;;2.63;;
52942;SDS011;38809;53.300;6.614;2023-12-22T03:41:45;11.45;;;3.35;;
52942;SDS011;38809;53.300;6.614;2023-12-22T03:44:17;19.75;;;3.58;;
52942;SDS011;38809;53.300;6.614;2023-12-22T03:46:43;12.68;;;3.80;;
52942;SDS011;38809;53.300;6.614;2023-12-22T03:49:09;15.52;;;3.53;;
52942;SDS011;38809;53.300;6.614;2023-12-22T03:51:35;19.02;;;3.95;;
52942;SDS011;38809;53.300;6.614;2023-12-22T03:54:02;16.70;;;3.15;;
52942;SDS011;38809;53.300;6.614;2023-12-22T03:56:28;9.85;;;2.70;;
52942;SDS011;38809;53.300;6.614;2023-12-22T03:58:55;13.25;;;3.58;;
52942;SDS011;38809;53.300;6.614;2023-12-22T04:01:21;11.77;;;2.38;;
52942;SDS011;38809;53.300;6.614;2023-12-22T04:03:47;9.27;;;2.30;;
52942;SDS011;38809;53.300;6.614;2023-12-22T04:06:13;8.30;;;2.10;;
52942;SDS011;38809;53.300;6.614;2023-12-22T04:08:39;10.75;;;2.03;;
52942;SDS011;38809;53.300;6.614;2023-12-22T04:11:06;11.35;;;2.70;;
52942;SDS011;38809;53.300;6.614;2023-12-22T04:13:32;13.18;;;3.00;;
52942;SDS011;38809;53.300;6.614;2023-12-22T04:16:01;10.25;;;3.08;;
52942;SDS011;38809;53.300;6.614;2023-12-22T04:18:29;14.32;;;3.55;;
52942;SDS011;38809;53.300;6.614;2023-12-22T04:20:56;14.25;;;3.08;;
52942;SDS011;38809;53.300;6.614;2023-12-22T04:23:28;14.95;;;3.78;;
52942;SDS011;38809;53.300;6.614;2023-12-22T04:25:55;10.95;;;3.63;;
52942;SDS011;38809;53.300;6.614;2023-12-22T04:28:21;15.63;;;3.53;;
52942;SDS011;38809;53.300;6.614;2023-12-22T04:30:47;15.73;;;3.45;;
52942;SDS011;38809;53.300;6.614;2023-12-22T04:33:13;15.32;;;3.17;;
52942;SDS011;38809;53.300;6.614;2023-12-22T04:35:39;12.90;;;3.20;;
52942;SDS011;38809;53.300;6.614;2023-12-22T04:38:05;9.73;;;3.00;;
52942;SDS011;38809;53.300;6.614;2023-12-22T04:40:32;12.13;;;2.92;;
52942;SDS011;38809;53.300;6.614;2023-12-22T04:42:58;17.55;;;3.97;;
52942;SDS011;38809;53.300;6.614;2023-12-22T04:45:24;12.45;;;3.88;;
52942;SDS011;38809;53.300;6.614;2023-12-22T04:47:50;10.32;;;3.25;;
52942;SDS011;38809;53.300;6.614;2023-12-22T04:50:16;19.40;;;4.10;;
52942;SDS011;38809;53.300;6.614;2023-12-22T04:52:45;13.32;;;3.20;;
52942;SDS011;38809;53.300;6.614;2023-12-22T04:55:11;14.13;;;3.22;;
52942;SDS011;38809;53.300;6.614;2023-12-22T04:57:38;15.02;;;3.17;;
52942;SDS011;38809;53.300;6.614;2023-12-22T05:00:04;12.93;;;2.58;;
52942;SDS011;38809;53.300;6.614;2023-12-22T05:02:30;14.63;;;3.00;;
52942;SDS011;38809;53.300;6.614;2023-12-22T05:04:56;17.48;;;3.38;;
52942;SDS011;38809;53.300;6.614;2023-12-22T05:07:22;12.38;;;2.80;;
52942;SDS011;38809;53.300;6.614;2023-12-22T05:09:49;10.50;;;2.70;;
52942;SDS011;38809;53.300;6.614;2023-12-22T05:12:17;9.93;;;2.58;;
52942;SDS011;38809;53.300;6.614;2023-12-22T05:14:43;11.70;;;3.15;;
52942;SDS011;38809;53.300;6.614;2023-12-22T05:19:35;13.50;;;2.80;;
52942;SDS011;38809;53.300;6.614;2023-12-22T05:22:03;15.85;;;3.10;;
52942;SDS011;38809;53.300;6.614;2023-12-22T05:24:29;14.00;;;3.42;;
52942;SDS011;38809;53.300;6.614;2023-12-22T05:26:55;15.10;;;3.25;;
52942;SDS011;38809;53.300;6.614;2023-12-22T05:29:21;13.95;;;3.05;;
52942;SDS011;38809;53.300;6.614;2023-12-22T05:31:47;12.18;;;2.97;;
52942;SDS011;38809;53.300;6.614;2023-12-22T05:34:14;12.32;;;3.55;;
52942;SDS011;38809;53.300;6.614;2023-12-22T05:36:40;15.07;;;3.63;;
52942;SDS011;38809;53.300;6.614;2023-12-22T05:39:06;15.60;;;3.35;;
52942;SDS011;38809;53.300;6.614;2023-12-22T05:41:35;12.30;;;3.10;;
52942;SDS011;38809;53.300;6.614;2023-12-22T05:44:03;18.08;;;2.85;;
52942;SDS011;38809;53.300;6.614;2023-12-22T05:46:30;19.17;;;3.47;;
52942;SDS011;38809;53.300;6.614;2023-12-22T05:48:56;11.02;;;3.13;;
52942;SDS011;38809;53.300;6.614;2023-12-22T05:51:24;13.05;;;3.28;;
52942;SDS011;38809;53.300;6.614;2023-12-22T05:53:51;13.93;;;3.28;;
52942;SDS011;38809;53.300;6.614;2023-12-22T05:56:19;16.13;;;3.35;;
52942;SDS011;38809;53.300;6.614;2023-12-22T06:01:15;15.15;;;3.05;;
52942;SDS011;38809;53.300;6.614;2023-12-22T06:03:44;16.73;;;3.20;;
52942;SDS011;38809;53.300;6.614;2023-12-22T06:06:11;9.25;;;2.85;;
52942;SDS011;38809;53.300;6.614;2023-12-22T06:08:37;15.38;;;3.47;;
52942;SDS011;38809;53.300;6.614;2023-12-22T06:11:03;15.75;;;3.17;;
52942;SDS011;38809;53.300;6.614;2023-12-22T06:13:30;9.45;;;2.30;;
52942;SDS011;38809;53.300;6.614;2023-12-22T06:15:56;14.32;;;2.47;;
52942;SDS011;38809;53.300;6.614;2023-12-22T06:18:23;11.63;;;2.67;;
52942;SDS011;38809;53.300;6.614;2023-12-22T06:20:49;13.30;;;2.95;;
52942;SDS011;38809;53.300;6.614;2023-12-22T06:23:15;9.32;;;2.53;;
52942;SDS011;38809;53.300;6.614;2023-12-22T06:25:42;13.02;;;3.13;;
52942;SDS011;38809;53.300;6.614;2023-12-22T06:28:08;11.52;;;2.53;;
52942;SDS011;38809;53.300;6.614;2023-12-22T06:30:34;15.77;;;3.15;;
52942;SDS011;38809;53.300;6.614;2023-12-22T06:33:00;13.68;;;2.97;;
52942;SDS011;38809;53.300;6.614;2023-12-22T06:35:26;13.40;;;2.78;;
52942;SDS011;38809;53.300;6.614;2023-12-22T06:37:53;11.38;;;2.53;;
52942;SDS011;38809;53.300;6.614;2023-12-22T06:40:20;11.40;;;2.25;;
52942;SDS011;38809;53.300;6.614;2023-12-22T06:42:46;11.57;;;2.67;;
52942;SDS011;38809;53.300;6.614;2023-12-22T06:45:13;10.18;;;2.17;;
52942;SDS011;38809;53.300;6.614;2023-12-22T06:47:39;12.43;;;3.05;;
52942;SDS011;38809;53.300;6.614;2023-12-22T06:50:05;8.65;;;2.38;;
52942;SDS011;38809;53.300;6.614;2023-12-22T06:52:31;8.68;;;2.30;;
52942;SDS011;38809;53.300;6.614;2023-12-22T06:54:58;9.02;;;2.20;;
52942;SDS011;38809;53.300;6.614;2023-12-22T06:57:24;8.00;;;1.90;;
52942;SDS011;38809;53.300;6.614;2023-12-22T06:59:50;8.23;;;2.03;;
52942;SDS011;38809;53.300;6.614;2023-12-22T07:02:16;13.90;;;2.72;;
52942;SDS011;38809;53.300;6.614;2023-12-22T07:07:31;10.68;;;2.40;;
52942;SDS011;38809;53.300;6.614;2023-12-22T07:10:00;14.48;;;3.08;;
52942;SDS011;38809;53.300;6.614;2023-12-22T07:12:26;17.70;;;3.47;;
52942;SDS011;38809;53.300;6.614;2023-12-22T07:14:53;12.07;;;2.42;;
52942;SDS011;38809;53.300;6.614;2023-12-22T07:17:19;10.75;;;2.28;;
52942;SDS011;38809;53.300;6.614;2023-12-22T07:19:45;8.95;;;2.00;;
52942;SDS011;38809;53.300;6.614;2023-12-22T07:22:12;8.80;;;1.95;;
52942;SDS011;38809;53.300;6.614;2023-12-22T07:24:39;9.73;;;2.55;;
52942;SDS011;38809;53.300;6.614;2023-12-22T07:27:05;10.82;;;2.72;;
52942;SDS011;38809;53.300;6.614;2023-12-22T07:29:31;9.98;;;2.60;;
52942;SDS011;38809;53.300;6.614;2023-12-22T07:31:57;12.23;;;2.30;;
52942;SDS011;38809;53.300;6.614;2023-12-22T07:34:23;10.13;;;2.53;;
52942;SDS011;38809;53.300;6.614;2023-12-22T07:36:50;9.68;;;2.25;;
52942;SDS011;38809;53.300;6.614;2023-12-22T07:39:21;7.43;;;1.85;;
52942;SDS011;38809;53.300;6.614;2023-12-22T07:41:47;14.18;;;2.50;;
52942;SDS011;38809;53.300;6.614;2023-12-22T07:44:13;11.45;;;2.60;;
52942;SDS011;38809;53.300;6.614;2023-12-22T07:49:06;9.77;;;2.42;;
52942;SDS011;38809;53.300;6.614;2023-12-22T07:51:32;18.05;;;2.90;;
52942;SDS011;38809;53.300;6.614;2023-12-22T07:54:04;9.75;;;2.80;;
52942;SDS011;38809;53.300;6.614;2023-12-22T07:56:31;11.77;;;2.92;;
52942;SDS011;38809;53.300;6.614;2023-12-22T07:58:58;12.93;;;2.78;;
52942;SDS011;38809;53.300;6.614;2023-12-22T08:01:27;11.40;;;2.88;;
52942;SDS011;38809;53.300;6.614;2023-12-22T08:03:53;10.73;;;2.83;;
52942;SDS011;38809;53.300;6.614;2023-12-22T08:06:20;12.30;;;3.10;;
52942;SDS011;38809;53.300;6.614;2023-12-22T08:08:46;11.73;;;2.78;;
52942;SDS011;38809;53.300;6.614;2023-12-22T08:11:12;16.20;;;3.40;;
52942;SDS011;38809;53.300;6.614;2023-12-22T08:13:39;12.73;;;3.30;;
52942;SDS011;38809;53.300;6.614;2023-12-22T08:16:05;12.70;;;3.53;;
52942;SDS011;38809;53.300;6.614;2023-12-22T08:18:31;10.90;;;3.03;;
52942;SDS011;38809;53.300;6.614;2023-12-22T08:21:00;10.55;;;2.88;;
52942;SDS011;38809;53.300;6.614;2023-12-22T08:23:26;13.27;;;3.33;;
52942;SDS011;38809;53.300;6.614;2023-12-22T08:25:52;12.05;;;3.00;;
52942;SDS011;38809;53.300;6.614;2023-12-22T08:28:18;12.75;;;3.03;;
52942;SDS011;38809;53.300;6.614;2023-12-22T08:30:45;10.07;;;3.25;;
52942;SDS011;38809;53.300;6.614;2023-12-22T08:33:11;13.30;;;3.38;;
52942;SDS011;38809;53.300;6.614;2023-12-22T08:35:38;8.75;;;2.38;;
52942;SDS011;38809;53.300;6.614;2023-12-22T08:38:04;13.50;;;2.92;;
52942;SDS011;38809;53.300;6.614;2023-12-22T08:40:30;12.90;;;2.83;;
52942;SDS011;38809;53.300;6.614;2023-12-22T08:42:57;9.98;;;2.33;;
52942;SDS011;38809;53.300;6.614;2023-12-22T08:45:25;8.25;;;2.10;;
52942;SDS011;38809;53.300;6.614;2023-12-22T08:47:54;14.70;;;2.85;;
52942;SDS011;38809;53.300;6.614;2023-12-22T08:50:20;12.82;;;2.63;;
52942;SDS011;38809;53.300;6.614;2023-12-22T08:52:46;13.73;;;2.83;;
52942;SDS011;38809;53.300;6.614;2023-12-22T08:55:12;16.45;;;3.55;;
52942;SDS011;38809;53.300;6.614;2023-12-22T08:57:43;10.98;;;2.80;;
52942;SDS011;38809;53.300;6.614;2023-12-22T09:00:09;11.73;;;2.53;;
52942;SDS011;38809;53.300;6.614;2023-12-22T09:02:35;9.32;;;2.60;;
52942;SDS011;38809;53.300;6.614;2023-12-22T09:05:02;12.90;;;2.80;;
52942;SDS011;38809;53.300;6.614;2023-12-22T09:07:28;11.50;;;2.97;;
52942;SDS011;38809;53.300;6.614;2023-12-22T09:09:54;12.10;;;2.65;;
52942;SDS011;38809;53.300;6.614;2023-12-22T09:14:46;11.13;;;2.45;;
52942;SDS011;38809;53.300;6.614;2023-12-22T09:17:13;15.13;;;2.55;;
52942;SDS011;38809;53.300;6.614;2023-12-22T09:19:39;10.07;;;2.22;;
52942;SDS011;38809;53.300;6.614;2023-12-22T09:22:08;9.45;;;2.15;;
52942;SDS011;38809;53.300;6.614;2023-12-22T09:24:34;10.20;;;2.55;;
52942;SDS011;38809;53.300;6.614;2023-12-22T09:27:01;8.38;;;2.30;;
52942;SDS011;38809;53.300;6.614;2023-12-22T09:29:31;12.15;;;2.92;;
52942;SDS011;38809;53.300;6.614;2023-12-22T09:31:58;13.25;;;2.90;;
52942;SDS011;38809;53.300;6.614;2023-12-22T09:34:29;9.50;;;2.70;;
52942;SDS011;38809;53.300;6.614;2023-12-22T09:36:55;10.45;;;2.78;;
52942;SDS011;38809;53.300;6.614;2023-12-22T09:39:22;7.22;;;2.53;;
52942;SDS011;38809;53.300;6.614;2023-12-22T09:41:54;12.45;;;2.58;;
52942;SDS011;38809;53.300;6.614;2023-12-22T09:46:50;28.25;;;4.30;;
52942;SDS011;38809;53.300;6.614;2023-12-22T09:49:20;15.05;;;2.53;;
52942;SDS011;38809;53.300;6.614;2023-12-22T09:51:46;12.20;;;3.35;;
52942;SDS011;38809;53.300;6.614;2023-12-22T09:54:13;12.60;;;2.30;;
52942;SDS011;38809;53.300;6.614;2023-12-22T09:56:40;7.70;;;1.85;;
52942;SDS011;38809;53.300;6.614;2023-12-22T09:59:11;11.02;;;2.17;;
52942;SDS011;38809;53.300;6.614;2023-12-22T10:01:40;13.57;;;3.00;;
52942;SDS011;38809;53.300;6.614;2023-12-22T10:04:14;18.27;;;2.88;;
52942;SDS011;38809;53.300;6.614;2023-12-22T10:06:41;9.50;;;2.22;;
52942;SDS011;38809;53.300;6.614;2023-12-22T10:11:39;8.23;;;2.00;;
52942;SDS011;38809;53.300;6.614;2023-12-22T10:14:06;9.70;;;1.88;;
52942;SDS011;38809;53.300;6.614;2023-12-22T10:16:35;10.95;;;2.40;;
52942;SDS011;38809;53.300;6.614;2023-12-22T10:19:03;10.77;;;1.88;;
52942;SDS011;38809;53.300;6.614;2023-12-22T10:21:32;9.45;;;1.70;;
52942;SDS011;38809;53.300;6.614;2023-12-22T10:24:07;11.40;;;2.22;;
52942;SDS011;38809;53.300;6.614;2023-12-22T10:26:33;7.03;;;2.00;;
52942;SDS011;38809;53.300;6.614;2023-12-22T10:29:03;7.93;;;2.67;;
52942;SDS011;38809;53.300;6.614;2023-12-22T10:31:39;9.95;;;2.00;;
52942;SDS011;38809;53.300;6.614;2023-12-22T10:34:06;11.43;;;1.98;;
52942;SDS011;38809;53.300;6.614;2023-12-22T10:36:32;6.45;;;1.50;;
52942;SDS011;38809;53.300;6.614;2023-12-22T10:39:05;9.43;;;2.00;;
52942;SDS011;38809;53.300;6.614;2023-12-22T10:41:31;7.97;;;1.95;;
52942;SDS011;38809;53.300;6.614;2023-12-22T10:43:57;8.00;;;2.33;;
52942;SDS011;38809;53.300;6.614;2023-12-22T10:46:24;8.80;;;2.10;;
52942;SDS011;38809;53.300;6.614;2023-12-22T10:48:52;10.35;;;2.45;;
52942;SDS011;38809;53.300;6.614;2023-12-22T10:51:19;12.60;;;2.35;;
52942;SDS011;38809;53.300;6.614;2023-12-22T10:53:45;10.38;;;2.20;;
52942;SDS011;38809;53.300;6.614;2023-12-22T10:56:17;7.40;;;1.95;;
52942;SDS011;38809;53.300;6.614;2023-12-22T10:58:43;8.45;;;2.03;;
52942;SDS011;38809;53.300;6.614;2023-12-22T11:01:11;10.10;;;2.33;;
52942;SDS011;38809;53.300;6.614;2023-12-22T11:03:39;8.98;;;2.22;;
52942;SDS011;38809;53.300;6.614;2023-12-22T11:06:10;10.18;;;2.33;;
52942;SDS011;38809;53.300;6.614;2023-12-22T11:08:37;12.20;;;2.58;;
52942;SDS011;38809;53.300;6.614;2023-12-22T11:11:08;22.40;;;2.38;;
52942;SDS011;38809;53.300;6.614;2023-12-22T11:13:39;5.53;;;2.08;;
52942;SDS011;38809;53.300;6.614;2023-12-22T11:16:06;13.20;;;2.53;;
52942;SDS011;38809;53.300;6.614;2023-12-22T11:18:35;9.52;;;2.13;;
52942;SDS011;38809;53.300;6.614;2023-12-22T11:21:02;9.45;;;2.25;;
52942;SDS011;38809;53.300;6.614;2023-12-22T11:23:32;10.52;;;2.40;;
52942;SDS011;38809;53.300;6.614;2023-12-22T11:25:59;10.88;;;2.70;;
52942;SDS011;38809;53.300;6.614;2023-12-22T11:28:28;9.52;;;1.90;;
52942;SDS011;38809;53.300;6.614;2023-12-22T11:30:54;7.63;;;1.98;;
52942;SDS011;38809;53.300;6.614;2023-12-22T11:33:21;7.80;;;1.83;;
52942;SDS011;38809;53.300;6.614;2023-12-22T11:35:50;15.48;;;2.17;;
52942;SDS011;38809;53.300;6.614;2023-12-22T11:38:18;6.00;;;1.77;;
52942;SDS011;38809;53.300;6.614;2023-12-22T11:40:44;10.60;;;2.22;;
52942;SDS011;38809;53.300;6.614;2023-12-22T11:43:10;7.13;;;1.95;;
52942;SDS011;38809;53.300;6.614;2023-12-22T11:45:37;11.73;;;2.08;;
52942;SDS011;38809;53.300;6.614;2023-12-22T11:48:08;8.90;;;2.20;;
52942;SDS011;38809;53.300;6.614;2023-12-22T11:50:34;6.90;;;1.85;;
52942;SDS011;38809;53.300;6.614;2023-12-22T12:00:57;8.48;;;1.83;;
52942;SDS011;38809;53.300;6.614;2023-12-22T12:03:26;7.03;;;1.67;;
52942;SDS011;38809;53.300;6.614;2023-12-22T12:08:37;6.82;;;1.67;;
52942;SDS011;38809;53.300;6.614;2023-12-22T12:11:04;9.60;;;1.95;;
52942;SDS011;38809;53.300;6.614;2023-12-22T12:13:31;5.75;;;1.67;;
52942;SDS011;38809;53.300;6.614;2023-12-22T12:16:01;10.55;;;2.80;;
52942;SDS011;38809;53.300;6.614;2023-12-22T12:18:31;9.73;;;1.88;;
52942;SDS011;38809;53.300;6.614;2023-12-22T12:20:58;9.80;;;2.22;;
52942;SDS011;38809;53.300;6.614;2023-12-22T12:25:52;7.88;;;1.48;;
52942;SDS011;38809;53.300;6.614;2023-12-22T12:28:25;10.80;;;2.15;;
52942;SDS011;38809;53.300;6.614;2023-12-22T12:30:56;6.72;;;1.40;;
52942;SDS011;38809;53.300;6.614;2023-12-22T12:33:24;9.43;;;1.90;;
52942;SDS011;38809;53.300;6.614;2023-12-22T12:35:52;6.85;;;2.13;;
52942;SDS011;38809;53.300;6.614;2023-12-22T12:38:20;6.80;;;1.75;;
52942;SDS011;38809;53.300;6.614;2023-12-22T12:40:47;13.30;;;2.67;;
52942;SDS011;38809;53.300;6.614;2023-12-22T12:43:17;9.13;;;2.47;;
52942;SDS011;38809;53.300;6.614;2023-12-22T12:45:44;10.18;;;2.03;;
52942;SDS011;38809;53.300;6.614;2023-12-22T12:48:15;6.50;;;2.03;;
52942;SDS011;38809;53.300;6.614;2023-12-22T12:50:43;8.20;;;2.33;;
52942;SDS011;38809;53.300;6.614;2023-12-22T12:53:09;12.25;;;2.67;;
52942;SDS011;38809;53.300;6.614;2023-12-22T12:55:41;8.38;;;1.92;;
52942;SDS011;38809;53.300;6.614;2023-12-22T12:58:13;10.82;;;1.90;;
52942;SDS011;38809;53.300;6.614;2023-12-22T13:00:39;6.30;;;2.13;;
52942;SDS011;38809;53.300;6.614;2023-12-22T13:03:05;11.10;;;1.90;;
52942;SDS011;38809;53.300;6.614;2023-12-22T13:05:31;7.43;;;1.92;;
52942;SDS011;38809;53.300;6.614;2023-12-22T13:08:10;8.55;;;1.80;;
52942;SDS011;38809;53.300;6.614;2023-12-22T13:10:37;7.28;;;1.80;;
52942;SDS011;38809;53.300;6.614;2023-12-22T13:13:03;5.72;;;1.17;;
52942;SDS011;38809;53.300;6.614;2023-12-22T13:15:30;9.90;;;1.45;;
52942;SDS011;38809;53.300;6.614;2023-12-22T13:20:22;7.90;;;1.73;;
52942;SDS011;38809;53.300;6.614;2023-12-22T13:22:48;7.75;;;1.48;;
52942;SDS011;38809;53.300;6.614;2023-12-22T13:25:15;8.05;;;1.73;;
52942;SDS011;38809;53.300;6.614;2023-12-22T13:30:12;8.70;;;1.65;;
52942;SDS011;38809;53.300;6.614;2023-12-22T13:32:38;6.65;;;1.60;;
52942;SDS011;38809;53.300;6.614;2023-12-22T13:35:04;7.10;;;1.73;;
52942;SDS011;38809;53.300;6.614;2023-12-22T13:37:31;5.88;;;1.85;;
52942;SDS011;38809;53.300;6.614;2023-12-22T13:39:57;6.38;;;1.23;;
52942;SDS011;38809;53.300;6.614;2023-12-22T13:42:23;9.93;;;1.88;;
52942;SDS011;38809;53.300;6.614;2023-12-22T13:44:49;5.45;;;1.42;;
52942;SDS011;38809;53.300;6.614;2023-12-22T13:47:20;6.75;;;1.63;;
52942;SDS011;38809;53.300;6.614;2023-12-22T13:49:46;7.45;;;1.42;;
52942;SDS011;38809;53.300;6.614;2023-12-22T13:52:29;7.22;;;1.70;;
52942;SDS011;38809;53.300;6.614;2023-12-22T13:55:00;10.20;;;1.73;;
52942;SDS011;38809;53.300;6.614;2023-12-22T13:57:27;5.72;;;1.25;;
52942;SDS011;38809;53.300;6.614;2023-12-22T13:59:54;10.63;;;1.73;;
52942;SDS011;38809;53.300;6.614;2023-12-22T14:02:21;5.30;;;1.17;;
52942;SDS011;38809;53.300;6.614;2023-12-22T14:04:48;7.15;;;1.60;;
52942;SDS011;38809;53.300;6.614;2023-12-22T14:07:14;6.45;;;1.27;;
52942;SDS011;38809;53.300;6.614;2023-12-22T14:09:40;4.63;;;1.25;;
52942;SDS011;38809;53.300;6.614;2023-12-22T14:12:06;9.10;;;1.25;;
52942;SDS011;38809;53.300;6.614;2023-12-22T14:14:32;5.93;;;1.10;;
52942;SDS011;38809;53.300;6.614;2023-12-22T14:16:58;8.15;;;0.98;;
52942;SDS011;38809;53.300;6.614;2023-12-22T14:19:24;5.38;;;1.13;;
52942;SDS011;38809;53.300;6.614;2023-12-22T14:21:51;4.55;;;1.05;;
52942;SDS011;38809;53.300;6.614;2023-12-22T14:24:21;4.93;;;1.08;;
52942;SDS011;38809;53.300;6.614;2023-12-22T14:26:53;5.07;;;1.17;;
52942;SDS011;38809;53.300;6.614;2023-12-22T14:29:20;5.35;;;0.75;;
52942;SDS011;38809;53.300;6.614;2023-12-22T14:31:51;6.47;;;1.48;;
52942;SDS011;38809;53.300;6.614;2023-12-22T14:34:17;4.60;;;1.30;;
52942;SDS011;38809;53.300;6.614;2023-12-22T14:36:44;9.93;;;1.60;;
52942;SDS011;38809;53.300;6.614;2023-12-22T14:39:10;4.00;;;1.25;;
52942;SDS011;38809;53.300;6.614;2023-12-22T14:41:41;4.80;;;0.98;;
52942;SDS011;38809;53.300;6.614;2023-12-22T14:44:08;4.22;;;1.30;;
52942;SDS011;38809;53.300;6.614;2023-12-22T14:46:40;7.63;;;1.33;;
52942;SDS011;38809;53.300;6.614;2023-12-22T14:49:06;6.65;;;1.20;;
52942;SDS011;38809;53.300;6.614;2023-12-22T14:53:58;5.32;;;1.30;;
52942;SDS011;38809;53.300;6.614;2023-12-22T14:56:25;8.18;;;1.50;;
52942;SDS011;38809;53.300;6.614;2023-12-22T14:58:51;11.57;;;1.55;;
52942;SDS011;38809;53.300;6.614;2023-12-22T15:01:19;5.07;;;1.13;;
52942;SDS011;38809;53.300;6.614;2023-12-22T15:03:46;6.93;;;1.50;;
52942;SDS011;38809;53.300;6.614;2023-12-22T15:06:13;7.43;;;1.48;;
52942;SDS011;38809;53.300;6.614;2023-12-22T15:08:39;6.75;;;1.65;;
52942;SDS011;38809;53.300;6.614;2023-12-22T15:11:05;8.88;;;2.03;;
52942;SDS011;38809;53.300;6.614;2023-12-22T15:13:32;6.80;;;1.25;;
52942;SDS011;38809;53.300;6.614;2023-12-22T15:16:04;6.80;;;1.98;;
52942;SDS011;38809;53.300;6.614;2023-12-22T15:18:31;7.20;;;1.75;;
52942;SDS011;38809;53.300;6.614;2023-12-22T15:20:57;7.32;;;1.85;;
52942;SDS011;38809;53.300;6.614;2023-12-22T15:23:24;7.40;;;1.60;;
52942;SDS011;38809;53.300;6.614;2023-12-22T15:25:57;5.30;;;1.55;;